Niederfeulen, Luxembourg
Current Conditions -  °F | °C
As of 11:50 AM on Friday 24 Oct 2014 (Local Time) from ELLX Reporting Station
Few Clouds Few Clouds  
Wind Chill: 50°   Ceiling: Unl
Heat Index: 50°   Visibility: 6mi
Dew Point: 43°   Wind: 6mph
Humidity: 76%   Direction: 160°SSE
Pressure: 30.18"   Gusts: NA
Location:  49.86°N, 6.05°E
Report Text: ELLX 240950Z 16005KT 130V220 9000 FEW013 10/06 Q1022 NOSIG
Loading
Personal Weather Stations






























Interactive Weather Map
Tropical Storm Tracking
New forecast layout! Learn more

10-Day Weather Forecast

Advertisements
Track Severe Weather on mobile